Time;durP1;ratioP1;P1;durP2;ratioP2;P2;SDS_P1;SDS_P2;PMS_P1;PMS_P2;Temp;Humidity;BMP_temperature;BMP_pressure;BME280_temperature;BME280_humidity;BME280_pressure;Samples;Min_cycle;Max_cycle;Signal;HPM_P1;HPM_P2
2021/03/09 00:00:37;;;;;;;14.05;9.60;;;1.30;69.70;;;;;;5045908;28;20221;-83
2021/03/09 00:03:05;;;;;;;19.45;9.20;;;1.30;69.90;;;;;;5033429;28;20216;-83
2021/03/09 00:05:31;;;;;;;9.45;8.45;;;1.30;70.30;;;;;;5050314;28;20232;-83
2021/03/09 00:07:58;;;;;;;14.50;9.93;;;1.30;69.40;;;;;;5047380;28;20200;-83
2021/03/09 00:10:24;;;;;;;14.38;9.45;;;1.30;69.10;;;;;;5030379;28;20197;-83
2021/03/09 00:12:51;;;;;;;11.48;8.85;;;1.30;70.40;;;;;;5031341;28;20724;-82
2021/03/09 00:15:18;;;;;;;12.93;9.40;;;1.10;70.90;;;;;;5050178;28;20204;-83
2021/03/09 00:17:44;;;;;;;11.88;9.55;;;1.10;71.60;;;;;;5049255;28;20618;-83
2021/03/09 00:20:12;;;;;;;14.25;8.60;;;1.10;70.50;;;;;;5049718;28;20204;-83
2021/03/09 00:22:38;;;;;;;9.20;7.45;;;1.10;70.80;;;;;;5048353;28;20270;-82
2021/03/09 00:25:06;;;;;;;11.30;7.80;;;1.00;71.00;;;;;;5049948;28;20577;-82
2021/03/09 00:27:33;;;;;;;10.40;7.95;;;1.00;69.80;;;;;;5030134;28;20955;-82
2021/03/09 00:30:00;;;;;;;12.38;8.70;;;0.90;71.70;;;;;;5030313;28;20930;-82
2021/03/09 00:32:26;;;;;;;11.80;8.80;;;1.00;71.50;;;;;;5034268;28;20230;-83
2021/03/09 00:34:53;;;;;;;11.35;8.50;;;1.00;71.30;;;;;;5039808;28;20204;-82
2021/03/09 00:37:19;;;;;;;16.33;10.30;;;1.10;71.10;;;;;;5042671;28;20227;-82
2021/03/09 00:39:46;;;;;;;14.38;9.80;;;1.10;71.20;;;;;;5031394;28;20207;-82
2021/03/09 00:42:12;;;;;;;12.88;10.30;;;1.00;71.90;;;;;;5032414;28;20200;-82
2021/03/09 00:44:38;;;;;;;16.02;10.35;;;1.00;72.10;;;;;;5031069;28;20310;-82
2021/03/09 00:47:06;;;;;;;15.15;12.70;;;1.10;72.00;;;;;;5030251;28;20270;-83
2021/03/09 00:49:32;;;;;;;12.23;9.77;;;1.10;70.40;;;;;;5029834;28;20216;-83
2021/03/09 00:51:59;;;;;;;11.60;8.93;;;1.00;69.40;;;;;;5045119;28;20201;-82
2021/03/09 00:54:25;;;;;;;10.18;8.48;;;1.00;69.70;;;;;;5031215;28;20200;-82
2021/03/09 00:56:51;;;;;;;16.73;10.65;;;1.00;69.60;;;;;;5050144;28;20585;-83
2021/03/09 00:59:18;;;;;;;14.30;9.90;;;0.90;69.60;;;;;;5050045;28;20666;-82
2021/03/09 01:01:44;;;;;;;14.38;10.68;;;0.90;71.10;;;;;;5056741;28;20215;-82
2021/03/09 01:04:12;;;;;;;14.02;10.63;;;0.90;70.40;;;;;;5048418;28;20278;-82
2021/03/09 01:06:39;;;;;;;12.32;10.57;;;1.00;70.60;;;;;;5030458;28;20201;-82
2021/03/09 01:09:05;;;;;;;14.52;10.23;;;0.90;70.00;;;;;;5030011;28;20674;-84
2021/03/09 01:11:32;;;;;;;16.73;11.80;;;0.90;70.30;;;;;;5030963;28;20251;-83
2021/03/09 01:13:58;;;;;;;17.45;11.85;;;0.90;70.00;;;;;;5043702;28;20227;-82
2021/03/09 01:16:25;;;;;;;15.07;11.30;;;0.80;69.80;;;;;;5038870;28;20196;-82
2021/03/09 01:18:51;;;;;;;11.43;9.95;;;0.80;69.70;;;;;;5053295;28;20696;-82
2021/03/09 01:21:18;;;;;;;14.10;11.38;;;0.90;69.90;;;;;;5042007;28;20204;-81
2021/03/09 01:23:45;;;;;;;15.63;11.32;;;0.90;70.10;;;;;;5036652;28;20216;-82
2021/03/09 01:26:11;;;;;;;13.18;10.15;;;0.80;70.10;;;;;;5037459;28;20204;-82
2021/03/09 01:28:37;;;;;;;13.60;11.18;;;0.70;70.40;;;;;;5049277;28;20204;-82
2021/03/09 01:31:04;;;;;;;13.80;10.52;;;0.70;70.10;;;;;;5053022;28;20578;-82
2021/03/09 01:33:30;;;;;;;17.63;12.10;;;0.80;70.80;;;;;;5039131;28;20196;-84
2021/03/09 01:35:57;;;;;;;14.00;11.23;;;0.80;70.60;;;;;;5046072;28;20211;-82
2021/03/09 01:38:24;;;;;;;16.25;11.23;;;0.70;70.80;;;;;;5033482;28;20209;-83
2021/03/09 01:40:51;;;;;;;13.93;11.15;;;0.70;70.90;;;;;;5044340;28;20204;-82
2021/03/09 01:43:17;;;;;;;17.25;10.93;;;0.70;71.70;;;;;;5044197;28;20558;-82
2021/03/09 01:45:44;;;;;;;15.75;11.65;;;0.70;71.30;;;;;;5033177;28;20248;-82
2021/03/09 01:48:11;;;;;;;16.63;12.77;;;0.80;70.70;;;;;;5047531;28;20361;-83
2021/03/09 01:50:42;;;;;;;14.60;11.93;;;0.80;70.40;;;;;;5059782;28;20192;-83
2021/03/09 01:53:09;;;;;;;17.60;12.40;;;0.80;70.70;;;;;;5043007;28;20569;-83
2021/03/09 01:55:37;;;;;;;15.40;11.30;;;0.70;70.20;;;;;;5033168;28;20200;-82
2021/03/09 01:58:08;;;;;;;11.55;10.30;;;0.70;69.90;;;;;;5033232;28;20224;-83
2021/03/09 02:00:35;;;;;;;18.15;12.43;;;0.70;69.90;;;;;;5057487;28;20202;-84
2021/03/09 02:03:04;;;;;;;14.75;10.98;;;0.70;70.70;;;;;;5032329;28;20530;-83
2021/03/09 02:05:32;;;;;;;17.83;12.57;;;0.70;71.50;;;;;;5032488;28;20692;-83
2021/03/09 02:07:59;;;;;;;16.13;11.40;;;0.70;71.40;;;;;;5051357;28;20669;-82
2021/03/09 02:10:29;;;;;;;13.88;11.23;;;0.80;71.70;;;;;;5047517;28;20795;-82
2021/03/09 02:13:08;;;;;;;16.48;12.32;;;0.80;72.50;;;;;;5057889;28;20226;-82
2021/03/09 02:15:39;;;;;;;14.32;10.98;;;0.70;71.40;;;;;;5049680;28;20209;-83
2021/03/09 02:18:15;;;;;;;11.27;10.07;;;0.70;70.90;;;;;;5055807;28;20192;-81
2021/03/09 02:21:10;;;;;;;15.43;11.18;;;0.60;70.70;;;;;;5068364;28;20218;-82
2021/03/09 02:24:03;;;;;;;11.48;10.32;;;0.50;72.30;;;;;;5041061;28;20221;-81
2021/03/09 02:27:11;;;;;;;12.93;9.75;;;0.60;72.00;;;;;;5045161;28;20200;-81
2021/03/09 02:30:10;;;;;;;13.63;10.43;;;0.60;71.50;;;;;;5052506;28;20200;-83
2021/03/09 02:32:42;;;;;;;13.98;10.38;;;0.60;71.80;;;;;;5057559;28;20215;-82
2021/03/09 02:35:12;;;;;;;15.95;12.05;;;0.70;72.30;;;;;;5032738;28;20200;-81
2021/03/09 02:37:41;;;;;;;11.48;10.25;;;0.60;71.50;;;;;;5032085;28;20200;-82
2021/03/09 02:40:13;;;;;;;14.15;9.88;;;0.60;71.00;;;;;;5032263;28;20232;-82
2021/03/09 02:42:49;;;;;;;14.27;10.27;;;0.60;71.50;;;;;;5047720;28;20242;-81
2021/03/09 02:45:20;;;;;;;13.73;10.55;;;0.60;71.70;;;;;;5052002;28;20219;-82
2021/03/09 02:47:50;;;;;;;11.20;9.25;;;0.60;71.80;;;;;;5051352;28;20220;-83
2021/03/09 02:50:20;;;;;;;13.30;11.43;;;0.60;71.90;;;;;;5071852;28;20203;-82
2021/03/09 02:52:51;;;;;;;15.93;11.30;;;0.50;71.30;;;;;;5038227;28;20215;-82
2021/03/09 02:55:20;;;;;;;15.07;9.80;;;0.40;71.40;;;;;;5031892;28;20196;-83
2021/03/09 02:57:49;;;;;;;13.93;11.23;;;0.40;71.80;;;;;;5033275;28;20204;-82
2021/03/09 03:00:20;;;;;;;15.48;9.95;;;0.40;72.60;;;;;;5030955;28;20262;-82
2021/03/09 03:02:48;;;;;;;13.02;11.55;;;0.50;73.00;;;;;;5047206;28;20196;-82
2021/03/09 03:05:18;;;;;;;14.73;10.98;;;0.50;73.00;;;;;;5037195;28;20220;-83
2021/03/09 03:07:46;;;;;;;14.98;10.38;;;0.50;72.70;;;;;;5035539;28;20210;-82
2021/03/09 03:10:18;;;;;;;12.38;10.00;;;0.40;73.40;;;;;;5031926;28;20227;-82
2021/03/09 03:12:48;;;;;;;14.48;11.18;;;0.20;74.10;;;;;;5040623;28;20738;-82
2021/03/09 03:15:16;;;;;;;14.82;10.82;;;0.30;75.20;;;;;;5051489;28;20211;-83
2021/03/09 03:17:45;;;;;;;13.93;10.48;;;0.40;74.60;;;;;;5036696;28;20254;-83
2021/03/09 03:20:15;;;;;;;13.52;10.60;;;0.40;74.10;;;;;;5031379;28;20211;-83
2021/03/09 03:22:44;;;;;;;13.57;11.48;;;0.40;74.60;;;;;;5036569;28;20197;-82
2021/03/09 03:25:12;;;;;;;13.20;9.68;;;0.40;74.80;;;;;;5031292;28;20618;-82
2021/03/09 03:27:41;;;;;;;13.93;11.07;;;0.40;73.40;;;;;;5032232;28;20207;-83
2021/03/09 03:30:10;;;;;;;17.90;11.25;;;0.40;73.30;;;;;;5031379;28;20258;-81
2021/03/09 03:32:37;;;;;;;15.80;10.30;;;0.40;73.80;;;;;;5045076;28;20203;-82
2021/03/09 03:35:07;;;;;;;15.50;9.85;;;0.20;75.00;;;;;;5050479;28;20202;-82
2021/03/09 03:37:35;;;;;;;16.52;10.48;;;0.10;75.50;;;;;;5047548;28;20203;-82
2021/03/09 03:40:05;;;;;;;12.65;9.98;;;0.10;74.10;;;;;;5030821;28;20827;-82
2021/03/09 03:42:31;;;;;;;12.75;9.70;;;0.10;73.20;;;;;;5042481;28;20200;-82
2021/03/09 03:44:59;;;;;;;11.23;10.02;;;0.10;73.10;;;;;;5050531;28;20219;-83
2021/03/09 03:47:25;;;;;;;16.88;10.85;;;0.20;73.30;;;;;;5040711;28;20323;-82
2021/03/09 03:49:52;;;;;;;12.32;10.35;;;0.00;74.50;;;;;;5030778;28;20208;-82
2021/03/09 03:52:25;;;;;;;13.95;10.88;;;-0.10;75.30;;;;;;5032146;28;20247;-82
2021/03/09 03:54:59;;;;;;;13.25;10.70;;;0.10;75.80;;;;;;5041670;28;20204;-82
2021/03/09 03:57:31;;;;;;;14.20;10.07;;;0.20;75.00;;;;;;5049356;28;20286;-82
2021/03/09 04:00:03;;;;;;;12.35;10.77;;;0.00;73.40;;;;;;5030040;28;20209;-82
2021/03/09 04:02:31;;;;;;;16.83;11.77;;;0.20;74.00;;;;;;5030318;28;20287;-82
2021/03/09 04:04:57;;;;;;;17.85;11.95;;;0.20;73.70;;;;;;5030691;28;20216;-82
2021/03/09 04:07:27;;;;;;;12.27;10.95;;;0.10;73.10;;;;;;5041509;28;20200;-83
2021/03/09 04:09:56;;;;;;;14.50;11.15;;;0.10;72.70;;;;;;5035229;28;20575;-83
2021/03/09 04:12:25;;;;;;;14.52;11.73;;;0.10;72.90;;;;;;5050210;28;20269;-82
2021/03/09 04:14:51;;;;;;;14.13;10.40;;;0.10;73.40;;;;;;5043779;28;20197;-83
2021/03/09 04:17:20;;;;;;;13.63;11.10;;;0.10;74.20;;;;;;5030841;28;20206;-83
2021/03/09 04:19:47;;;;;;;17.98;11.20;;;0.10;73.60;;;;;;5031165;28;20650;-83
2021/03/09 04:22:14;;;;;;;12.50;9.75;;;0.20;74.20;;;;;;5035912;28;20220;-83
2021/03/09 04:24:43;;;;;;;11.70;10.50;;;0.30;75.00;;;;;;5045140;28;20247;-83
2021/03/09 04:27:20;;;;;;;14.02;10.27;;;0.30;75.20;;;;;;5044372;28;20200;-81
2021/03/09 04:29:51;;;;;;;15.35;11.85;;;0.20;74.50;;;;;;5036439;28;20212;-82
2021/03/09 04:32:19;;;;;;;13.60;10.85;;;0.30;75.00;;;;;;5030354;28;20565;-83
2021/03/09 04:34:46;;;;;;;15.55;11.73;;;0.40;75.40;;;;;;5042487;28;20207;-81
2021/03/09 04:37:14;;;;;;;15.05;11.68;;;0.30;74.30;;;;;;5031967;28;20205;-82
2021/03/09 04:39:42;;;;;;;18.77;12.40;;;0.20;73.60;;;;;;5030649;28;20258;-83
2021/03/09 04:42:10;;;;;;;18.08;12.25;;;0.10;74.00;;;;;;5030938;28;20197;-82
2021/03/09 04:44:36;;;;;;;16.02;11.35;;;0.00;75.60;;;;;;5033348;28;20212;-82
2021/03/09 04:47:04;;;;;;;15.80;10.85;;;0.00;75.60;;;;;;5051103;28;20200;-83
2021/03/09 04:49:32;;;;;;;12.32;10.45;;;0.00;75.90;;;;;;5038519;28;20209;-82
2021/03/09 04:51:59;;;;;;;14.68;10.73;;;0.10;75.40;;;;;;5034400;28;20208;-82
2021/03/09 04:54:26;;;;;;;17.77;12.30;;;0.00;74.80;;;;;;5049085;28;20203;-82
2021/03/09 04:56:53;;;;;;;15.52;11.15;;;0.10;75.00;;;;;;5074408;28;20211;-82
2021/03/09 04:59:20;;;;;;;13.50;10.88;;;0.00;75.20;;;;;;5073800;28;20207;-82
2021/03/09 05:01:47;;;;;;;13.85;10.45;;;0.20;75.00;;;;;;5056239;28;20212;-82
2021/03/09 05:04:14;;;;;;;16.67;11.40;;;0.00;74.70;;;;;;5042762;28;20239;-82
2021/03/09 05:06:40;;;;;;;13.18;10.40;;;-0.10;75.00;;;;;;5054319;28;20761;-82
2021/03/09 05:09:07;;;;;;;12.18;10.98;;;0.10;75.40;;;;;;5041451;28;20689;-82
2021/03/09 05:11:34;;;;;;;16.77;11.55;;;0.10;75.20;;;;;;5046105;28;20262;-82
2021/03/09 05:14:01;;;;;;;18.88;11.50;;;0.10;74.40;;;;;;5043736;28;20762;-82
2021/03/09 05:16:28;;;;;;;18.90;11.95;;;0.00;74.90;;;;;;5033888;28;20254;-82
2021/03/09 05:18:54;;;;;;;14.18;11.43;;;-0.10;75.90;;;;;;5034182;28;20205;-82
2021/03/09 05:21:21;;;;;;;15.32;11.45;;;0.00;75.50;;;;;;5033814;28;20216;-82
2021/03/09 05:23:48;;;;;;;12.50;10.82;;;0.10;75.10;;;;;;5053699;28;20557;-82
2021/03/09 05:26:14;;;;;;;13.30;11.45;;;0.00;75.90;;;;;;5043697;28;20557;-82
2021/03/09 05:28:41;;;;;;;14.30;11.68;;;0.00;75.30;;;;;;5038134;28;20807;-83
2021/03/09 05:31:08;;;;;;;16.98;12.52;;;0.00;75.00;;;;;;5053648;28;20203;-84
2021/03/09 05:33:34;;;;;;;17.40;13.48;;;-0.10;74.30;;;;;;5045385;28;20278;-84
2021/03/09 05:36:01;;;;;;;19.85;12.98;;;-0.10;74.40;;;;;;5043168;28;20318;-85
2021/03/09 05:38:27;;;;;;;17.35;12.15;;;-0.10;74.60;;;;;;5051888;28;20200;-84
2021/03/09 05:40:54;;;;;;;17.85;12.25;;;0.00;74.90;;;;;;5053748;28;20196;-84
2021/03/09 05:43:21;;;;;;;16.08;12.40;;;-0.10;75.20;;;;;;5033347;28;20254;-85
2021/03/09 05:45:47;;;;;;;17.65;13.65;;;-0.10;75.40;;;;;;5039264;28;20239;-85
2021/03/09 05:48:14;;;;;;;16.02;12.18;;;-0.10;76.00;;;;;;5053671;28;20215;-84
2021/03/09 05:50:41;;;;;;;17.15;12.88;;;-0.20;76.80;;;;;;5047177;28;20251;-85
2021/03/09 05:53:07;;;;;;;16.92;12.25;;;-0.20;77.20;;;;;;5038677;28;20199;-85
2021/03/09 05:55:34;;;;;;;19.27;13.55;;;-0.10;77.60;;;;;;5051478;28;20192;-85
2021/03/09 05:58:01;;;;;;;19.25;13.55;;;0.00;77.40;;;;;;5049228;28;20208;-85
2021/03/09 06:00:28;;;;;;;23.48;13.75;;;-0.10;77.40;;;;;;5049265;28;20196;-85
2021/03/09 06:02:55;;;;;;;19.15;14.07;;;0.00;78.00;;;;;;5033849;28;20200;-85
2021/03/09 06:05:22;;;;;;;18.15;12.52;;;0.10;77.10;;;;;;5032775;28;20232;-85
2021/03/09 06:07:53;;;;;;;17.85;14.40;;;0.10;76.80;;;;;;5034118;28;20204;-85
2021/03/09 06:10:20;;;;;;;21.73;16.95;;;0.20;76.10;;;;;;5052724;28;20299;-86
2021/03/09 06:12:47;;;;;;;20.00;15.75;;;0.30;76.00;;;;;;5036318;28;20555;-85
2021/03/09 06:15:13;;;;;;;20.88;16.20;;;0.50;76.10;;;;;;5042754;28;20276;-85
2021/03/09 06:17:42;;;;;;;23.25;15.50;;;0.50;75.30;;;;;;5051373;28;20557;-85
2021/03/09 06:20:19;;;;;;;17.45;14.40;;;0.50;75.50;;;;;;5037398;28;20242;-85
2021/03/09 06:22:48;;;;;;;20.02;13.82;;;0.50;75.80;;;;;;5041465;28;20204;-86
2021/03/09 06:25:17;;;;;;;18.55;14.50;;;0.40;77.10;;;;;;5038674;28;20701;-85
2021/03/09 06:27:43;;;;;;;18.95;14.32;;;0.50;78.10;;;;;;5034024;28;20208;-85
2021/03/09 06:30:12;;;;;;;18.38;14.43;;;0.40;79.00;;;;;;5032849;28;20201;-85
2021/03/09 06:32:40;;;;;;;19.30;15.02;;;0.40;79.10;;;;;;5043883;28;20200;-86
2021/03/09 06:35:24;;;;;;;27.10;16.40;;;0.50;78.90;;;;;;5051661;28;20567;-85
2021/03/09 06:37:52;;;;;;;21.63;15.45;;;0.60;78.50;;;;;;5033582;28;20235;-85
2021/03/09 06:40:19;;;;;;;19.42;14.27;;;0.70;77.40;;;;;;5046383;28;20200;-85
2021/03/09 06:42:46;;;;;;;19.67;15.18;;;0.80;76.90;;;;;;5048437;28;20193;-85
2021/03/09 06:45:14;;;;;;;20.25;15.10;;;0.90;76.40;;;;;;5033937;28;20220;-85
2021/03/09 06:47:42;;;;;;;25.13;17.13;;;1.00;77.00;;;;;;5052868;28;20211;-86
2021/03/09 06:50:11;;;;;;;19.13;15.73;;;1.00;77.20;;;;;;5044403;28;20209;-85
2021/03/09 06:52:39;;;;;;;21.15;15.73;;;1.10;76.50;;;;;;5033925;28;20303;-86
2021/03/09 06:55:09;;;;;;;27.98;16.30;;;1.20;76.10;;;;;;5052007;28;20230;-85
2021/03/09 06:57:35;;;;;;;19.65;15.32;;;1.20;75.60;;;;;;5053480;28;20208;-85
2021/03/09 07:00:05;;;;;;;21.83;16.92;;;1.20;75.40;;;;;;5040964;28;20225;-86
2021/03/09 07:02:32;;;;;;;22.92;16.17;;;1.40;76.20;;;;;;5033670;28;20209;-84
2021/03/09 07:05:03;;;;;;;20.67;16.80;;;1.40;76.10;;;;;;5051945;28;20221;-86
2021/03/09 07:07:31;;;;;;;21.95;14.90;;;1.30;76.60;;;;;;5033828;28;20204;-85
2021/03/09 07:10:00;;;;;;;23.77;17.30;;;1.30;77.30;;;;;;5045199;28;20200;-86
2021/03/09 07:12:29;;;;;;;21.20;17.15;;;1.60;77.80;;;;;;5052411;28;20204;-85
2021/03/09 07:14:57;;;;;;;24.40;18.77;;;1.80;77.10;;;;;;5032518;28;20196;-86
2021/03/09 07:17:27;;;;;;;27.10;17.70;;;1.90;76.50;;;;;;5032043;28;20204;-85
2021/03/09 07:19:55;;;;;;;24.63;18.65;;;2.00;76.20;;;;;;5032673;28;20666;-85
2021/03/09 07:22:23;;;;;;;24.35;18.55;;;2.10;76.00;;;;;;5038406;28;20204;-84
2021/03/09 07:25:08;;;;;;;23.17;17.50;;;2.20;75.80;;;;;;5031478;28;20717;-85
2021/03/09 07:27:41;;;;;;;25.80;19.25;;;2.20;76.50;;;;;;5046426;28;20673;-85
2021/03/09 07:30:10;;;;;;;27.55;17.65;;;2.30;76.50;;;;;;5045350;28;20232;-86
2021/03/09 07:32:39;;;;;;;25.88;18.83;;;2.50;76.40;;;;;;5032282;28;20207;-85
2021/03/09 07:35:08;;;;;;;25.00;19.02;;;2.70;76.40;;;;;;5047893;28;20206;-85
2021/03/09 07:37:37;;;;;;;27.58;19.92;;;2.80;75.70;;;;;;5051353;28;20226;-86
2021/03/09 07:40:05;;;;;;;24.15;16.73;;;2.90;75.70;;;;;;5035530;28;20258;-85
2021/03/09 07:42:31;;;;;;;24.33;17.40;;;3.10;74.60;;;;;;5037750;28;20207;-86
2021/03/09 07:44:59;;;;;;;25.67;19.70;;;3.30;74.50;;;;;;5051428;28;20224;-86
2021/03/09 07:47:26;;;;;;;27.38;18.25;;;3.50;74.00;;;;;;5046128;28;20208;-86
2021/03/09 07:49:53;;;;;;;22.95;16.90;;;3.70;73.40;;;;;;5031629;28;20682;-86
2021/03/09 07:52:21;;;;;;;22.83;18.48;;;3.90;73.00;;;;;;5036669;28;20208;-86
2021/03/09 07:55:27;;;;;;;23.27;17.00;;;4.00;72.70;;;;;;5050744;28;20238;-87
2021/03/09 07:58:21;;;;;;;22.73;18.20;;;4.10;72.20;;;;;;5031444;28;20287;-85
2021/03/09 08:00:56;;;;;;;23.20;17.77;;;4.10;71.90;;;;;;5032295;28;20665;-85
2021/03/09 08:03:24;;;;;;;23.50;18.10;;;4.10;71.30;;;;;;5038711;28;20294;-86
2021/03/09 08:05:55;;;;;;;22.77;17.40;;;4.10;71.50;;;;;;5038470;28;20207;-86
2021/03/09 08:08:44;;;;;;;26.80;18.33;;;4.20;71.20;;;;;;5031246;28;20201;-86
2021/03/09 08:11:38;;;;;;;20.88;16.55;;;4.30;70.70;;;;;;5034100;28;20211;-85
2021/03/09 08:14:24;;;;;;;20.98;16.48;;;4.20;70.20;;;;;;5021980;28;20286;-85
2021/03/09 08:16:51;;;;;;;21.85;17.25;;;4.30;70.10;;;;;;5031087;28;20200;-85
2021/03/09 08:19:40;;;;;;;24.75;16.20;;;4.40;70.20;;;;;;5031981;28;20227;-85
2021/03/09 08:22:07;;;;;;;21.98;16.58;;;4.40;69.80;;;;;;5038164;28;20191;-85
2021/03/09 08:24:56;;;;;;;23.92;17.63;;;4.60;69.90;;;;;;5057983;28;20213;-86
2021/03/09 08:27:42;;;;;;;24.63;16.65;;;4.80;69.90;;;;;;5030763;28;20578;-86
2021/03/09 08:30:29;;;;;;;23.02;18.17;;;4.80;69.50;;;;;;5032800;28;20193;-86
2021/03/09 08:33:23;;;;;;;21.35;16.77;;;5.00;69.40;;;;;;5030295;28;20203;-86
2021/03/09 08:35:49;;;;;;;18.95;15.85;;;5.20;68.60;;;;;;5045931;28;20203;-86
2021/03/09 08:38:21;;;;;;;25.70;18.38;;;5.30;67.90;;;;;;5037541;28;20669;-86
2021/03/09 08:41:06;;;;;;;22.70;17.70;;;5.20;67.80;;;;;;5030617;28;20205;-86
2021/03/09 08:43:33;;;;;;;23.40;16.85;;;5.20;68.30;;;;;;5043491;28;20204;-85
2021/03/09 08:46:02;;;;;;;22.05;17.45;;;5.50;68.10;;;;;;5031120;28;20708;-86
2021/03/09 08:48:50;;;;;;;24.13;16.92;;;5.60;67.50;;;;;;5043146;28;20193;-86
2021/03/09 08:51:46;;;;;;;23.15;16.80;;;5.80;67.10;;;;;;5050645;28;20637;-87
2021/03/09 08:54:36;;;;;;;23.63;16.63;;;5.90;66.70;;;;;;5031727;28;20197;-86
2021/03/09 08:57:08;;;;;;;24.10;17.20;;;5.90;65.70;;;;;;5030802;28;20207;-87
2021/03/09 08:59:36;;;;;;;24.35;18.10;;;5.70;65.30;;;;;;5030848;28;20200;-86
2021/03/09 09:02:05;;;;;;;20.77;17.15;;;5.70;65.90;;;;;;5030342;28;20682;-87
2021/03/09 09:04:33;;;;;;;24.88;17.20;;;5.80;65.70;;;;;;5030180;28;20220;-87
2021/03/09 09:07:00;;;;;;;22.40;15.98;;;6.10;65.70;;;;;;5030285;28;20204;-86
2021/03/09 09:09:31;;;;;;;19.98;16.58;;;6.30;65.50;;;;;;5030043;28;20684;-87
2021/03/09 09:11:58;;;;;;;19.33;16.90;;;6.30;64.20;;;;;;5049940;28;20196;-86
2021/03/09 09:14:26;;;;;;;21.70;16.90;;;6.40;63.90;;;;;;5050052;28;20212;-87
2021/03/09 09:16:54;;;;;;;23.58;17.48;;;6.60;64.10;;;;;;5031865;28;20586;-86
2021/03/09 09:19:21;;;;;;;22.50;16.85;;;6.70;63.60;;;;;;5030490;28;20658;-86
2021/03/09 09:21:50;;;;;;;22.48;16.00;;;6.90;63.50;;;;;;5047565;28;20261;-86
2021/03/09 09:24:18;;;;;;;24.20;17.80;;;7.00;63.00;;;;;;5069430;28;20231;-87
2021/03/09 09:26:45;;;;;;;24.83;16.48;;;7.20;62.50;;;;;;5053545;28;20199;-87
2021/03/09 09:29:12;;;;;;;20.80;16.85;;;7.30;62.50;;;;;;5050232;28;20204;-86
2021/03/09 09:31:38;;;;;;;23.45;16.52;;;7.40;62.10;;;;;;5036036;28;20201;-87
2021/03/09 09:34:05;;;;;;;19.05;15.88;;;7.50;61.30;;;;;;5032509;28;20246;-87
2021/03/09 09:36:32;;;;;;;22.52;16.40;;;7.40;60.00;;;;;;5033375;28;20232;-87
2021/03/09 09:38:59;;;;;;;22.15;15.10;;;7.50;59.90;;;;;;5034054;28;20220;-87
2021/03/09 09:41:26;;;;;;;18.02;14.15;;;7.40;59.70;;;;;;5034669;28;20267;-87
2021/03/09 09:43:55;;;;;;;19.45;15.00;;;7.50;59.30;;;;;;5033484;28;20211;-86
2021/03/09 09:46:23;;;;;;;21.55;16.05;;;7.60;59.30;;;;;;5042944;28;20204;-87
2021/03/09 09:48:51;;;;;;;19.48;14.88;;;7.70;59.50;;;;;;5051223;28;20200;-86
2021/03/09 09:51:19;;;;;;;20.33;15.82;;;7.80;59.30;;;;;;5051163;28;20689;-86
2021/03/09 09:53:47;;;;;;;22.67;16.33;;;7.90;59.10;;;;;;5051608;28;20200;-86
2021/03/09 09:56:23;;;;;;;22.10;16.75;;;7.90;59.10;;;;;;5051783;28;20195;-86
2021/03/09 09:58:51;;;;;;;25.05;18.27;;;7.90;58.90;;;;;;5049593;28;20201;-86
2021/03/09 10:01:19;;;;;;;25.13;15.88;;;7.90;59.00;;;;;;5033258;28;20205;-86
2021/03/09 10:03:53;;;;;;;20.38;17.55;;;7.90;59.30;;;;;;5048144;28;20664;-87
2021/03/09 10:06:20;;;;;;;23.67;17.95;;;8.00;59.30;;;;;;5057105;28;20652;-86
2021/03/09 10:08:47;;;;;;;20.00;16.85;;;8.10;58.80;;;;;;5061719;28;20193;-86
2021/03/09 10:11:14;;;;;;;22.90;15.48;;;8.20;58.20;;;;;;5065119;28;20199;-85
2021/03/09 10:13:41;;;;;;;18.42;15.70;;;8.30;58.10;;;;;;5071620;28;20677;-86
2021/03/09 10:16:08;;;;;;;20.63;17.00;;;8.30;58.20;;;;;;5060523;28;20200;-86
2021/03/09 10:18:36;;;;;;;19.58;16.38;;;8.20;57.60;;;;;;5051739;28;20583;-86
2021/03/09 10:21:06;;;;;;;20.23;14.95;;;8.20;57.40;;;;;;5033338;28;20436;-86
2021/03/09 10:23:35;;;;;;;18.20;14.93;;;8.30;57.70;;;;;;5050972;28;20258;-86
2021/03/09 10:26:04;;;;;;;16.40;14.68;;;8.40;57.90;;;;;;5041176;28;20225;-87
2021/03/09 10:28:32;;;;;;;16.25;14.55;;;8.30;57.60;;;;;;5033336;28;20204;-86
2021/03/09 10:30:59;;;;;;;18.55;14.93;;;8.50;57.20;;;;;;5052418;28;20214;-86
2021/03/09 10:33:26;;;;;;;20.77;14.45;;;8.80;57.50;;;;;;5032998;28;20200;-86
2021/03/09 10:36:06;;;;;;;16.65;14.05;;;8.80;57.20;;;;;;5033070;28;20196;-88
2021/03/09 10:38:33;;;;;;;17.90;14.43;;;9.00;57.10;;;;;;5033902;28;20208;-86
2021/03/09 10:41:01;;;;;;;15.18;10.98;;;9.00;56.70;;;;;;5052292;28;20575;-88
2021/03/09 10:43:41;;;;;;;9.07;8.18;;;9.20;56.60;;;;;;5040390;28;20243;-88
2021/03/09 10:46:09;;;;;;;10.25;8.95;;;8.60;54.10;;;;;;5035881;28;20196;-88
2021/03/09 10:48:36;;;;;;;11.07;9.68;;;8.20;54.30;;;;;;5031762;28;20204;-87
2021/03/09 10:51:02;;;;;;;14.02;11.38;;;8.60;55.50;;;;;;5048429;28;20749;-87
2021/03/09 10:53:29;;;;;;;10.65;9.55;;;9.10;55.30;;;;;;5046623;28;21260;-87
2021/03/09 10:55:57;;;;;;;10.00;9.00;;;9.40;54.80;;;;;;5051190;28;20195;-86
2021/03/09 10:58:26;;;;;;;9.48;8.05;;;9.40;53.70;;;;;;5032301;28;20201;-86
2021/03/09 11:00:53;;;;;;;11.57;9.20;;;9.70;53.00;;;;;;5032407;28;20234;-85
2021/03/09 11:03:22;;;;;;;12.52;9.55;;;9.90;53.30;;;;;;5032136;28;20208;-86
2021/03/09 11:05:48;;;;;;;9.38;8.38;;;10.10;51.80;;;;;;5043202;28;20220;-86
2021/03/09 11:08:15;;;;;;;13.82;9.20;;;10.20;51.40;;;;;;5049243;28;20235;-86
2021/03/09 11:10:42;;;;;;;11.50;9.18;;;10.10;50.70;;;;;;5032563;28;20220;-87
2021/03/09 11:13:13;;;;;;;11.00;9.60;;;9.80;52.40;;;;;;5044853;28;20545;-86
2021/03/09 11:15:39;;;;;;;10.20;9.20;;;10.00;52.20;;;;;;5050429;28;20194;-86
2021/03/09 11:18:07;;;;;;;11.30;8.97;;;9.80;52.10;;;;;;5068230;28;20634;-86
2021/03/09 11:20:33;;;;;;;10.38;8.90;;;10.10;51.30;;;;;;5051428;28;20625;-86
2021/03/09 11:23:08;;;;;;;11.40;8.67;;;10.20;50.10;;;;;;5056392;28;20208;-86
2021/03/09 11:25:37;;;;;;;11.10;8.87;;;10.20;50.80;;;;;;5031532;28;20666;-86
2021/03/09 11:28:04;;;;;;;10.55;9.55;;;10.20;49.30;;;;;;5033897;28;20627;-86
2021/03/09 11:30:33;;;;;;;10.63;9.20;;;10.10;49.60;;;;;;5039531;28;20595;-86
2021/03/09 11:32:59;;;;;;;10.80;9.80;;;10.30;50.20;;;;;;5071373;28;20618;-86
2021/03/09 11:35:27;;;;;;;11.60;10.40;;;9.80;50.50;;;;;;5070408;28;20605;-86
2021/03/09 11:37:54;;;;;;;11.60;9.73;;;9.40;50.80;;;;;;5034984;28;20627;-86
2021/03/09 11:40:20;;;;;;;11.27;9.40;;;9.00;50.10;;;;;;5032606;28;20665;-86
2021/03/09 11:42:49;;;;;;;10.80;9.70;;;9.00;51.10;;;;;;5047564;28;20619;-85
2021/03/09 11:45:17;;;;;;;11.43;10.33;;;9.50;51.20;;;;;;5061834;28;20645;-86
2021/03/09 11:47:45;;;;;;;11.03;9.93;;;9.60;50.50;;;;;;5056196;28;20618;-86
2021/03/09 11:50:12;;;;;;;12.00;10.15;;;8.60;50.70;;;;;;5041029;28;20627;-86
2021/03/09 11:52:40;;;;;;;11.60;10.40;;;8.80;52.60;;;;;;5030686;28;20207;-85
2021/03/09 11:55:08;;;;;;;12.07;9.10;;;9.40;51.70;;;;;;5043214;28;20199;-85
2021/03/09 11:57:35;;;;;;;12.50;10.73;;;10.00;50.50;;;;;;5050180;28;20611;-85
2021/03/09 12:00:02;;;;;;;10.53;9.30;;;10.30;50.20;;;;;;5049767;28;20211;-85
2021/03/09 12:02:28;;;;;;;12.10;9.77;;;10.60;49.60;;;;;;5048870;28;20665;-85
2021/03/09 12:04:55;;;;;;;9.80;8.80;;;10.60;48.90;;;;;;5050062;28;21218;-85
2021/03/09 12:07:21;;;;;;;12.60;9.33;;;10.80;48.90;;;;;;5050612;28;20215;-85
2021/03/09 12:09:49;;;;;;;10.53;9.30;;;10.60;48.10;;;;;;5050884;28;20609;-86
2021/03/09 12:12:15;;;;;;;11.93;10.55;;;10.50;48.80;;;;;;5050631;28;21170;-86
2021/03/09 12:14:42;;;;;;;11.50;10.13;;;9.30;49.60;;;;;;5050102;28;20192;-84
2021/03/09 12:17:08;;;;;;;12.05;10.00;;;9.80;50.30;;;;;;5050320;28;20614;-85
2021/03/09 12:19:35;;;;;;;11.67;9.33;;;9.90;50.30;;;;;;5050426;28;20666;-85
2021/03/09 12:22:01;;;;;;;10.93;9.83;;;10.20;48.60;;;;;;5053371;28;20606;-84
2021/03/09 12:24:28;;;;;;;10.97;9.70;;;10.20;48.60;;;;;;5065161;28;20641;-85
2021/03/09 12:26:56;;;;;;;10.80;9.70;;;10.70;47.70;;;;;;5054574;28;20634;-85
2021/03/09 12:29:23;;;;;;;11.50;9.77;;;11.00;47.30;;;;;;5041145;28;20728;-85
2021/03/09 12:31:50;;;;;;;13.83;10.43;;;9.60;46.70;;;;;;5044216;28;20635;-85
2021/03/09 12:34:17;;;;;;;9.83;8.90;;;9.80;48.90;;;;;;5037282;28;20963;-84
2021/03/09 12:36:43;;;;;;;11.00;10.00;;;10.00;48.70;;;;;;5067898;28;20675;-86
2021/03/09 12:39:10;;;;;;;10.57;9.47;;;9.60;48.50;;;;;;5029971;28;20666;-85
2021/03/09 12:41:36;;;;;;;10.57;9.57;;;9.70;49.00;;;;;;5046692;28;20977;-86
2021/03/09 12:44:04;;;;;;;10.93;9.83;;;10.40;48.40;;;;;;5054466;28;20633;-86
2021/03/09 12:46:30;;;;;;;11.13;9.93;;;10.60;48.30;;;;;;5049809;28;21232;-86
2021/03/09 12:48:57;;;;;;;10.50;9.20;;;11.10;47.80;;;;;;5030121;28;20661;-85